createdAt,value
2022-07-28T00:01:07.942Z,14.10
2022-07-28T00:03:53.442Z,14.10
2022-07-28T00:06:38.616Z,14.10
2022-07-28T00:09:24.088Z,14.10
2022-07-28T00:12:09.291Z,14.10
2022-07-28T00:14:54.949Z,14.10
2022-07-28T00:17:39.938Z,14.10
2022-07-28T00:20:27.851Z,14.10
2022-07-28T00:23:13.174Z,14.10
2022-07-28T00:25:58.797Z,14.10
2022-07-28T00:28:44.460Z,14.00
2022-07-28T00:31:29.698Z,14.00
2022-07-28T00:34:15.518Z,14.00
2022-07-28T00:37:00.852Z,14.00
2022-07-28T00:39:52.063Z,14.00
2022-07-28T00:42:37.623Z,14.00
2022-07-28T00:45:22.718Z,14.00
2022-07-28T00:48:08.489Z,14.00
2022-07-28T00:50:54.193Z,14.00
2022-07-28T00:53:40.243Z,14.00
2022-07-28T00:56:25.736Z,14.00
2022-07-28T00:59:10.839Z,14.00
2022-07-28T01:01:56.629Z,14.00
2022-07-28T01:04:42.306Z,14.00
2022-07-28T01:07:32.899Z,14.00
2022-07-28T01:10:30.671Z,13.90
2022-07-28T01:13:22.395Z,13.90
2022-07-28T01:16:07.981Z,13.90
2022-07-28T01:19:10.813Z,13.90
2022-07-28T01:21:57.388Z,13.90
2022-07-28T01:24:48.867Z,13.90
2022-07-28T01:27:43.519Z,13.90
2022-07-28T01:30:28.820Z,13.90
2022-07-28T01:33:18.970Z,13.90
2022-07-28T01:36:08.869Z,13.90
2022-07-28T01:38:54.884Z,13.80
2022-07-28T01:41:41.787Z,13.80
2022-07-28T01:44:28.258Z,13.90
2022-07-28T01:47:14.266Z,13.90
2022-07-28T01:50:00.818Z,13.90
2022-07-28T01:52:47.528Z,14.00
2022-07-28T01:55:33.476Z,13.90
2022-07-28T01:58:20.297Z,13.90
2022-07-28T02:01:06.032Z,14.00
2022-07-28T02:03:51.879Z,14.00
2022-07-28T02:06:37.249Z,14.00
2022-07-28T02:09:23.476Z,14.00
2022-07-28T02:12:09.871Z,14.00
2022-07-28T02:14:56.489Z,14.00
2022-07-28T02:17:43.729Z,14.10
2022-07-28T02:20:29.470Z,14.10
2022-07-28T02:23:14.789Z,14.10
2022-07-28T02:26:01.273Z,14.10
2022-07-28T02:28:47.198Z,14.10
2022-07-28T02:31:37.880Z,14.10
2022-07-28T02:34:28.030Z,14.10
2022-07-28T02:37:15.903Z,14.00
2022-07-28T02:40:02.539Z,14.00
2022-07-28T02:42:48.748Z,14.00
2022-07-28T02:45:35.744Z,14.00
2022-07-28T02:48:23.983Z,13.90
2022-07-28T02:51:09.741Z,13.90
2022-07-28T02:53:55.716Z,13.90
2022-07-28T02:56:41.665Z,13.90
2022-07-28T02:59:39.718Z,13.90
2022-07-28T03:02:25.727Z,13.90
2022-07-28T03:05:13.207Z,13.90
2022-07-28T03:07:59.598Z,13.90
2022-07-28T03:10:45.115Z,13.90
2022-07-28T03:13:30.724Z,14.00
2022-07-28T03:16:15.867Z,14.00
2022-07-28T03:19:01.367Z,14.00
2022-07-28T03:21:49.504Z,14.00
2022-07-28T03:24:40.083Z,14.10
2022-07-28T03:27:27.941Z,14.10
2022-07-28T03:30:15.267Z,14.20
2022-07-28T03:33:01.542Z,14.20
2022-07-28T03:35:50.395Z,14.30
2022-07-28T03:38:45.641Z,14.30
2022-07-28T03:41:32.292Z,14.30
2022-07-28T03:44:27.774Z,14.30
2022-07-28T03:47:14.408Z,14.40
2022-07-28T03:49:59.302Z,14.40
2022-07-28T03:52:44.451Z,14.50
2022-07-28T03:55:29.508Z,14.50
2022-07-28T03:58:14.538Z,14.60
2022-07-28T04:00:59.838Z,14.70
2022-07-28T04:03:45.121Z,14.70
2022-07-28T04:06:30.321Z,14.80
2022-07-28T04:09:16.158Z,14.80
2022-07-28T04:12:01.495Z,14.90
2022-07-28T04:14:46.693Z,14.90
2022-07-28T04:17:32.324Z,14.90
2022-07-28T04:20:18.093Z,14.90
2022-07-28T04:23:03.587Z,15.00
2022-07-28T04:25:49.555Z,15.00
2022-07-28T04:28:35.026Z,15.10
2022-07-28T04:31:20.117Z,15.10
2022-07-28T04:34:05.676Z,15.20
2022-07-28T04:36:52.132Z,15.10
2022-07-28T04:39:37.321Z,15.20
2022-07-28T04:42:22.401Z,15.20
2022-07-28T04:45:08.544Z,15.20
2022-07-28T04:47:53.601Z,15.20
2022-07-28T04:50:40.757Z,15.20
2022-07-28T04:53:25.942Z,15.20
2022-07-28T04:56:11.302Z,15.40
2022-07-28T04:58:56.962Z,15.40
2022-07-28T05:01:42.651Z,15.40
2022-07-28T05:04:28.213Z,15.40
2022-07-28T05:07:13.803Z,15.40
2022-07-28T05:09:59.446Z,15.50
2022-07-28T05:12:45.395Z,15.50
2022-07-28T05:15:30.727Z,15.60
2022-07-28T05:18:15.750Z,15.60
2022-07-28T05:21:00.777Z,15.60
2022-07-28T05:23:47.774Z,15.70
2022-07-28T05:26:32.978Z,15.80
2022-07-28T05:29:18.280Z,15.80
2022-07-28T05:32:16.627Z,15.80
2022-07-28T05:35:03.925Z,15.80
2022-07-28T05:37:49.508Z,16.00
2022-07-28T05:40:34.945Z,16.00
2022-07-28T05:43:20.396Z,16.00
2022-07-28T05:46:05.945Z,16.00
2022-07-28T05:48:51.951Z,16.00
2022-07-28T05:51:41.714Z,16.10
2022-07-28T05:54:27.225Z,16.10
2022-07-28T05:57:15.523Z,16.20
2022-07-28T06:00:01.088Z,16.30
2022-07-28T06:02:47.433Z,16.30
2022-07-28T06:05:33.805Z,16.30
2022-07-28T06:08:19.371Z,16.30
2022-07-28T06:11:11.917Z,16.50
2022-07-28T06:14:07.009Z,16.40
2022-07-28T06:16:52.495Z,16.50
2022-07-28T06:19:38.084Z,16.50
2022-07-28T06:22:23.131Z,16.70
2022-07-28T06:25:12.200Z,16.60
2022-07-28T06:27:58.965Z,16.60
2022-07-28T06:30:44.946Z,16.60
2022-07-28T06:33:30.028Z,16.60
2022-07-28T06:36:15.597Z,16.70
2022-07-28T06:39:00.695Z,16.70
2022-07-28T06:41:46.306Z,16.80
2022-07-28T06:44:54.823Z,16.80
2022-07-28T06:47:37.093Z,16.80
2022-07-28T06:50:30.924Z,16.90
2022-07-28T06:53:15.905Z,16.80
2022-07-28T06:56:01.227Z,16.80
2022-07-28T06:58:47.245Z,16.70
2022-07-28T07:01:32.848Z,16.80
2022-07-28T07:04:19.024Z,16.90
2022-07-28T07:07:11.808Z,16.90
2022-07-28T07:10:04.677Z,17.00
2022-07-28T07:12:49.954Z,17.20
2022-07-28T07:15:35.487Z,17.40
2022-07-28T07:18:21.029Z,17.70
2022-07-28T07:21:06.615Z,17.80
2022-07-28T07:23:51.710Z,18.10
2022-07-28T07:26:37.806Z,18.30
2022-07-28T07:29:23.700Z,18.30
2022-07-28T07:32:10.949Z,18.50
2022-07-28T07:34:56.422Z,18.60
2022-07-28T07:37:41.783Z,18.50
2022-07-28T07:40:27.148Z,18.40
2022-07-28T07:43:12.867Z,18.40
2022-07-28T07:45:58.281Z,18.40
2022-07-28T07:48:43.881Z,18.30
2022-07-28T07:51:29.281Z,18.30
2022-07-28T07:54:15.136Z,18.20
2022-07-28T07:57:00.926Z,18.30
2022-07-28T07:59:46.151Z,18.30
2022-07-28T08:02:31.609Z,18.20
2022-07-28T08:05:17.600Z,18.10
2022-07-28T08:08:05.105Z,18.30
2022-07-28T08:10:51.158Z,18.40
2022-07-28T08:13:36.762Z,18.50
2022-07-28T08:16:21.880Z,18.50
2022-07-28T08:19:07.345Z,18.50
2022-07-28T08:21:55.529Z,19.10
2022-07-28T08:24:41.313Z,18.90
2022-07-28T08:27:27.099Z,19.00
2022-07-28T08:30:14.959Z,19.00
2022-07-28T08:33:03.049Z,19.00
2022-07-28T08:35:49.317Z,19.00
2022-07-28T08:38:34.409Z,19.00
2022-07-28T08:41:24.857Z,19.00
2022-07-28T08:44:20.615Z,19.20
2022-07-28T08:47:08.525Z,19.40
2022-07-28T08:49:54.747Z,19.20
2022-07-28T08:52:40.811Z,19.10
2022-07-28T08:55:31.333Z,19.20
2022-07-28T08:58:17.982Z,19.10
2022-07-28T09:01:04.364Z,19.10
2022-07-28T09:03:50.741Z,19.00
2022-07-28T09:06:42.046Z,18.90
2022-07-28T09:09:27.232Z,18.80
2022-07-28T09:12:12.830Z,18.70
2022-07-28T09:14:58.399Z,18.60
2022-07-28T09:17:43.479Z,18.70
2022-07-28T09:20:29.452Z,19.00
2022-07-28T09:23:41.890Z,19.30
2022-07-28T09:26:20.383Z,19.70
2022-07-28T09:29:08.581Z,19.70
2022-07-28T09:31:57.158Z,19.50
2022-07-28T09:34:51.387Z,19.30
2022-07-28T09:37:37.013Z,19.40
2022-07-28T09:40:22.786Z,19.40
2022-07-28T09:43:11.607Z,19.50
2022-07-28T09:46:03.351Z,19.50
2022-07-28T09:48:49.002Z,19.50
2022-07-28T09:51:35.824Z,19.60
2022-07-28T09:54:21.202Z,19.80
2022-07-28T09:57:10.317Z,20.00
2022-07-28T09:59:56.049Z,20.00
2022-07-28T10:02:49.687Z,19.90
2022-07-28T10:05:39.146Z,19.90
2022-07-28T10:08:43.227Z,20.00
2022-07-28T10:11:29.192Z,20.10
2022-07-28T10:14:16.454Z,20.10
2022-07-28T10:17:05.987Z,20.20
2022-07-28T10:19:54.390Z,20.50
2022-07-28T10:22:43.220Z,20.60
2022-07-28T10:25:30.308Z,20.50
2022-07-28T10:28:19.301Z,20.50
2022-07-28T10:31:05.323Z,20.60
2022-07-28T10:33:51.389Z,20.70
2022-07-28T10:36:37.337Z,20.80
2022-07-28T10:39:23.738Z,20.70
2022-07-28T10:42:09.586Z,20.80
2022-07-28T10:44:55.550Z,20.90
2022-07-28T10:47:43.511Z,20.70
2022-07-28T10:50:28.753Z,20.60
2022-07-28T10:53:19.649Z,20.90
2022-07-28T10:56:12.720Z,20.80
2022-07-28T10:59:08.913Z,20.90
2022-07-28T11:01:54.501Z,20.90
2022-07-28T11:04:52.377Z,21.10
2022-07-28T11:07:39.687Z,21.10
2022-07-28T11:10:25.066Z,20.90
2022-07-28T11:13:23.009Z,20.70
2022-07-28T11:16:17.664Z,20.50
2022-07-28T11:19:40.775Z,20.50
2022-07-28T11:22:22.335Z,20.50
2022-07-28T11:25:20.565Z,20.10
2022-07-28T11:28:07.555Z,20.00
2022-07-28T11:30:53.595Z,19.90
2022-07-28T11:33:53.954Z,19.90
2022-07-28T11:36:57.669Z,19.90
2022-07-28T11:39:44.205Z,20.00
2022-07-28T11:42:32.342Z,20.00
2022-07-28T11:45:22.690Z,20.20
2022-07-28T11:48:19.027Z,20.30
2022-07-28T11:51:04.530Z,20.20
2022-07-28T11:53:50.960Z,20.10
2022-07-28T11:56:37.777Z,20.10
2022-07-28T11:59:23.006Z,20.20
2022-07-28T12:02:26.395Z,20.10
2022-07-28T12:05:12.502Z,20.20
2022-07-28T12:07:58.404Z,20.40
2022-07-28T12:10:54.442Z,20.50
2022-07-28T12:13:41.106Z,20.80
2022-07-28T12:16:27.174Z,20.90
2022-07-28T12:19:16.772Z,21.20
2022-07-28T12:22:09.168Z,21.50
2022-07-28T12:25:01.025Z,21.40
2022-07-28T12:27:46.721Z,21.60
2022-07-28T12:30:33.507Z,21.60
2022-07-28T12:33:29.356Z,21.60
2022-07-28T12:36:18.969Z,21.40
2022-07-28T12:39:08.350Z,21.20
2022-07-28T12:42:05.239Z,21.20
2022-07-28T12:44:54.112Z,21.10
2022-07-28T12:47:39.305Z,21.10
2022-07-28T12:50:24.988Z,21.00
2022-07-28T12:53:10.836Z,20.70
2022-07-28T12:56:05.988Z,20.70
2022-07-28T12:59:04.531Z,20.40
2022-07-28T13:01:51.692Z,20.10
2022-07-28T13:04:44.605Z,20.20
2022-07-28T13:07:32.055Z,20.20
2022-07-28T13:10:17.333Z,20.10
2022-07-28T13:13:07.325Z,20.30
2022-07-28T13:16:11.741Z,20.30
2022-07-28T13:18:58.528Z,20.60
2022-07-28T13:21:59.677Z,20.90
2022-07-28T13:24:46.891Z,20.70
2022-07-28T13:27:33.109Z,20.50
2022-07-28T13:30:18.577Z,20.40
2022-07-28T13:33:03.707Z,20.30
2022-07-28T13:35:50.355Z,20.40
2022-07-28T13:38:35.748Z,20.60
2022-07-28T13:41:20.789Z,20.80
2022-07-28T13:44:05.939Z,20.70
2022-07-28T13:46:51.663Z,20.60
2022-07-28T13:49:40.260Z,20.60
2022-07-28T13:52:34.745Z,20.70
2022-07-28T13:55:23.094Z,21.20
2022-07-28T13:58:08.979Z,21.90
2022-07-28T14:00:54.854Z,22.10
2022-07-28T14:03:55.667Z,21.80
2022-07-28T14:06:45.138Z,21.50
2022-07-28T14:09:30.769Z,21.10
2022-07-28T14:12:16.708Z,21.30
2022-07-28T14:15:01.908Z,21.90
2022-07-28T14:17:47.044Z,22.60
2022-07-28T14:20:32.729Z,22.60
2022-07-28T14:23:18.249Z,22.70
2022-07-28T14:26:33.373Z,22.70
2022-07-28T14:29:11.229Z,22.60
2022-07-28T14:31:59.379Z,22.90
2022-07-28T14:34:45.025Z,22.30
2022-07-28T14:37:47.183Z,22.10
2022-07-28T14:40:39.337Z,22.40
2022-07-28T14:43:24.982Z,23.00
2022-07-28T14:46:16.307Z,23.40
2022-07-28T14:49:06.127Z,24.00
2022-07-28T14:51:51.671Z,23.70
2022-07-28T14:54:36.808Z,23.70
2022-07-28T14:57:24.519Z,23.40
2022-07-28T15:00:31.103Z,23.50
2022-07-28T15:03:17.125Z,23.60
2022-07-28T15:06:02.878Z,23.40
2022-07-28T15:08:48.214Z,23.10
2022-07-28T15:11:33.949Z,23.30
2022-07-28T15:14:21.330Z,23.70
2022-07-28T15:17:06.983Z,23.30
2022-07-28T15:19:52.294Z,23.20
2022-07-28T15:22:37.809Z,23.10
2022-07-28T15:25:23.607Z,23.40
2022-07-28T15:28:09.116Z,23.30
2022-07-28T15:30:54.730Z,23.80
2022-07-28T15:33:48.089Z,23.40
2022-07-28T15:36:34.266Z,22.50
2022-07-28T15:39:20.823Z,22.20
2022-07-28T15:42:06.322Z,22.20
2022-07-28T15:44:51.906Z,22.20
2022-07-28T15:47:37.445Z,21.80
2022-07-28T15:50:23.097Z,21.50
2022-07-28T15:53:08.260Z,21.50
2022-07-28T15:55:53.710Z,21.40
2022-07-28T15:58:38.986Z,21.60
2022-07-28T16:01:24.565Z,21.90
2022-07-28T16:04:10.064Z,22.00
2022-07-28T16:07:14.426Z,21.90
2022-07-28T16:10:00.007Z,21.90
2022-07-28T16:12:45.256Z,21.80
2022-07-28T16:15:31.049Z,21.60
2022-07-28T16:18:16.807Z,21.40
2022-07-28T16:21:02.318Z,21.20
2022-07-28T16:23:47.539Z,21.00
2022-07-28T16:26:33.039Z,20.90
2022-07-28T16:29:18.585Z,20.90
2022-07-28T16:32:04.282Z,21.00
2022-07-28T16:34:49.833Z,20.90
2022-07-28T16:37:35.636Z,20.70
2022-07-28T16:40:20.752Z,20.40
2022-07-28T16:43:06.907Z,20.00
2022-07-28T16:45:52.200Z,19.70
2022-07-28T16:48:38.095Z,19.50
2022-07-28T16:51:24.684Z,19.40
2022-07-28T16:54:09.940Z,19.20
2022-07-28T16:56:55.426Z,19.20
2022-07-28T16:59:48.292Z,19.10
2022-07-28T17:02:34.499Z,18.90
2022-07-28T17:05:20.284Z,18.90
2022-07-28T17:08:06.139Z,18.90
2022-07-28T17:10:51.363Z,18.80
2022-07-28T17:13:38.883Z,18.80
2022-07-28T17:16:27.422Z,18.70
2022-07-28T17:19:13.646Z,18.60
2022-07-28T17:22:01.125Z,18.60
2022-07-28T17:24:48.291Z,18.50
2022-07-28T17:27:38.168Z,18.40
2022-07-28T17:30:24.012Z,18.40
2022-07-28T17:33:09.679Z,18.40
2022-07-28T17:35:56.225Z,18.40
2022-07-28T17:38:42.974Z,18.30
2022-07-28T17:41:28.237Z,18.40
2022-07-28T17:44:14.871Z,18.40
2022-07-28T17:47:01.647Z,18.40
2022-07-28T17:49:47.132Z,18.40
2022-07-28T17:52:32.316Z,18.40
2022-07-28T17:55:57.591Z,18.30
2022-07-28T17:58:42.516Z,18.20
2022-07-28T18:01:27.612Z,18.10
2022-07-28T18:04:13.840Z,18.00
2022-07-28T18:06:59.427Z,17.90
2022-07-28T18:09:45.018Z,17.70
2022-07-28T18:12:30.395Z,17.60
2022-07-28T18:15:15.454Z,17.50
2022-07-28T18:18:02.180Z,17.40
2022-07-28T18:20:48.022Z,17.40
2022-07-28T18:23:33.321Z,17.30
2022-07-28T18:26:18.486Z,17.20
2022-07-28T18:29:04.006Z,17.10
2022-07-28T18:31:50.817Z,17.00
2022-07-28T18:34:36.264Z,17.00
2022-07-28T18:37:21.484Z,16.90
2022-07-28T18:40:06.835Z,16.80
2022-07-28T18:42:52.183Z,16.70
2022-07-28T18:45:37.768Z,16.60
2022-07-28T18:48:25.461Z,16.60
2022-07-28T18:51:10.669Z,16.40
2022-07-28T18:53:55.848Z,16.40
2022-07-28T18:56:41.294Z,16.40
2022-07-28T18:59:27.102Z,16.30
2022-07-28T19:02:14.961Z,16.20
2022-07-28T19:05:00.316Z,16.20
2022-07-28T19:07:47.242Z,16.10
2022-07-28T19:10:32.640Z,16.10
2022-07-28T19:13:18.120Z,16.00
2022-07-28T19:16:03.443Z,16.00
2022-07-28T19:18:49.310Z,16.00
2022-07-28T19:21:34.869Z,16.00
2022-07-28T19:24:20.845Z,16.00
2022-07-28T19:27:07.173Z,16.00
2022-07-28T19:29:52.633Z,15.90
2022-07-28T19:32:41.624Z,15.90
2022-07-28T19:35:26.795Z,15.90
2022-07-28T19:38:12.455Z,15.80
2022-07-28T19:40:59.949Z,15.80
2022-07-28T19:43:45.408Z,15.70
2022-07-28T19:46:31.218Z,15.70
2022-07-28T19:49:16.996Z,15.60
2022-07-28T19:52:02.217Z,15.70
2022-07-28T19:54:51.331Z,15.50
2022-07-28T19:57:36.843Z,15.50
2022-07-28T20:00:21.999Z,15.40
2022-07-28T20:03:59.766Z,15.40
2022-07-28T20:06:13.682Z,15.30
2022-07-28T20:08:59.819Z,15.30
2022-07-28T20:11:45.461Z,15.30
2022-07-28T20:14:31.054Z,15.20
2022-07-28T20:17:37.079Z,15.20
2022-07-28T20:20:22.574Z,15.10
2022-07-28T20:23:08.009Z,15.10
2022-07-28T20:25:53.710Z,15.00
2022-07-28T20:28:39.263Z,14.90
2022-07-28T20:31:24.352Z,14.90
2022-07-28T20:34:12.899Z,14.80
2022-07-28T20:36:58.461Z,14.80
2022-07-28T20:39:45.440Z,14.80
2022-07-28T20:42:31.588Z,14.80
2022-07-28T20:45:16.912Z,14.70
2022-07-28T20:48:02.502Z,14.70
2022-07-28T20:50:47.774Z,14.60
2022-07-28T20:53:32.775Z,14.60
2022-07-28T20:56:17.979Z,14.60
2022-07-28T20:59:06.618Z,14.50
2022-07-28T21:01:52.157Z,14.60
2022-07-28T21:04:37.768Z,14.60
2022-07-28T21:08:00.090Z,14.50
2022-07-28T21:10:30.100Z,14.50
2022-07-28T21:13:15.257Z,14.40
2022-07-28T21:16:00.308Z,14.30
2022-07-28T21:18:45.966Z,14.20
2022-07-28T21:21:31.247Z,14.40
2022-07-28T21:24:16.931Z,14.10
2022-07-28T21:27:03.233Z,14.10
2022-07-28T21:29:48.793Z,14.00
2022-07-28T21:32:33.883Z,14.00
2022-07-28T21:35:19.452Z,14.00
2022-07-28T21:38:04.894Z,14.00
2022-07-28T21:40:50.334Z,14.00
2022-07-28T21:43:35.650Z,14.00
2022-07-28T21:46:23.613Z,14.00
2022-07-28T21:49:08.858Z,13.90
2022-07-28T21:51:54.357Z,14.00
2022-07-28T21:54:39.524Z,14.00
2022-07-28T21:57:25.231Z,14.00
2022-07-28T22:00:12.664Z,13.90
2022-07-28T22:02:57.966Z,13.90
2022-07-28T22:05:45.766Z,13.90
2022-07-28T22:08:31.604Z,13.90
2022-07-28T22:11:17.149Z,13.90
2022-07-28T22:14:02.637Z,13.90
2022-07-28T22:16:48.528Z,13.90
2022-07-28T22:19:33.938Z,13.90
2022-07-28T22:22:19.473Z,13.90
2022-07-28T22:25:04.789Z,13.90
2022-07-28T22:27:49.934Z,13.80
2022-07-28T22:30:35.600Z,13.80
2022-07-28T22:33:21.267Z,13.80
2022-07-28T22:36:07.377Z,13.80
2022-07-28T22:38:55.374Z,13.70
2022-07-28T22:41:40.894Z,13.70
2022-07-28T22:44:28.401Z,13.60
2022-07-28T22:47:14.016Z,13.50
2022-07-28T22:49:59.436Z,13.40
2022-07-28T22:52:45.130Z,13.30
2022-07-28T22:58:33.480Z,13.20
2022-07-28T23:01:21.485Z,13.30
2022-07-28T23:04:07.622Z,13.30
2022-07-28T23:06:55.641Z,13.30
2022-07-28T23:09:41.978Z,13.30
2022-07-28T23:12:27.740Z,13.30
2022-07-28T23:15:13.003Z,13.30
2022-07-28T23:17:59.239Z,13.30
2022-07-28T23:20:46.463Z,13.30
2022-07-28T23:23:32.187Z,13.30
2022-07-28T23:26:17.407Z,13.20
2022-07-28T23:29:03.128Z,13.30
2022-07-28T23:31:49.686Z,13.30
2022-07-28T23:34:35.263Z,13.20
2022-07-28T23:37:20.659Z,13.20
2022-07-28T23:40:06.575Z,13.20
2022-07-28T23:42:51.969Z,13.20
2022-07-28T23:45:37.210Z,13.10
2022-07-28T23:48:23.541Z,13.10
2022-07-28T23:51:08.817Z,13.10
2022-07-28T23:53:56.527Z,13.10
2022-07-28T23:56:42.691Z,13.10
2022-07-28T23:59:27.755Z,13.00
